sensor_id;sensor_type;location;lat;lon;timestamp;P1;durP1;ratioP1;P2;durP2;ratioP2
3941;SDS011;1985;48.592;8.850;2022-08-01T00:01:05;9.40;;;1.90;;
3941;SDS011;1985;48.592;8.850;2022-08-01T00:03:31;9.10;;;1.70;;
3941;SDS011;1985;48.592;8.850;2022-08-01T00:05:56;8.77;;;1.70;;
3941;SDS011;1985;48.592;8.850;2022-08-01T00:08:22;8.80;;;1.70;;
3941;SDS011;1985;48.592;8.850;2022-08-01T00:10:47;9.40;;;1.90;;
3941;SDS011;1985;48.592;8.850;2022-08-01T00:13:13;8.82;;;1.83;;
3941;SDS011;1985;48.592;8.850;2022-08-01T00:15:39;9.10;;;1.90;;
3941;SDS011;1985;48.592;8.850;2022-08-01T00:18:05;9.70;;;2.03;;
3941;SDS011;1985;48.592;8.850;2022-08-01T00:20:30;9.30;;;1.73;;
3941;SDS011;1985;48.592;8.850;2022-08-01T00:22:56;12.10;;;2.00;;
3941;SDS011;1985;48.592;8.850;2022-08-01T00:25:21;11.23;;;2.20;;
3941;SDS011;1985;48.592;8.850;2022-08-01T00:27:47;9.90;;;2.00;;
3941;SDS011;1985;48.592;8.850;2022-08-01T00:30:13;9.10;;;1.63;;
3941;SDS011;1985;48.592;8.850;2022-08-01T00:32:38;11.00;;;2.20;;
3941;SDS011;1985;48.592;8.850;2022-08-01T00:35:04;8.93;;;1.60;;
3941;SDS011;1985;48.592;8.850;2022-08-01T00:37:30;9.90;;;1.80;;
3941;SDS011;1985;48.592;8.850;2022-08-01T00:39:56;9.87;;;2.10;;
3941;SDS011;1985;48.592;8.850;2022-08-01T00:42:21;9.00;;;1.90;;
3941;SDS011;1985;48.592;8.850;2022-08-01T00:44:47;9.03;;;1.80;;
3941;SDS011;1985;48.592;8.850;2022-08-01T00:47:13;9.23;;;2.10;;
3941;SDS011;1985;48.592;8.850;2022-08-01T00:49:38;10.70;;;1.73;;
3941;SDS011;1985;48.592;8.850;2022-08-01T00:52:04;9.60;;;1.90;;
3941;SDS011;1985;48.592;8.850;2022-08-01T00:54:30;9.27;;;2.17;;
3941;SDS011;1985;48.592;8.850;2022-08-01T00:56:57;8.70;;;1.60;;
3941;SDS011;1985;48.592;8.850;2022-08-01T00:59:23;9.70;;;2.00;;
3941;SDS011;1985;48.592;8.850;2022-08-01T01:01:49;9.40;;;1.90;;
3941;SDS011;1985;48.592;8.850;2022-08-01T01:04:15;10.00;;;1.80;;
3941;SDS011;1985;48.592;8.850;2022-08-01T01:06:44;10.02;;;1.90;;
3941;SDS011;1985;48.592;8.850;2022-08-01T01:09:39;9.10;;;1.90;;
3941;SDS011;1985;48.592;8.850;2022-08-01T01:14:43;9.23;;;1.92;;
3941;SDS011;1985;48.592;8.850;2022-08-01T01:17:16;9.50;;;1.80;;
3941;SDS011;1985;48.592;8.850;2022-08-01T01:19:47;8.82;;;1.60;;
3941;SDS011;1985;48.592;8.850;2022-08-01T01:25:00;10.88;;;1.95;;
3941;SDS011;1985;48.592;8.850;2022-08-01T01:29:56;9.13;;;1.67;;
3941;SDS011;1985;48.592;8.850;2022-08-01T01:32:26;8.98;;;1.98;;
3941;SDS011;1985;48.592;8.850;2022-08-01T01:34:59;8.95;;;1.83;;
3941;SDS011;1985;48.592;8.850;2022-08-01T01:37:29;8.80;;;1.63;;
3941;SDS011;1985;48.592;8.850;2022-08-01T01:39:57;9.00;;;1.90;;
3941;SDS011;1985;48.592;8.850;2022-08-01T01:42:24;10.17;;;1.80;;
3941;SDS011;1985;48.592;8.850;2022-08-01T01:44:51;9.40;;;1.90;;
3941;SDS011;1985;48.592;8.850;2022-08-01T01:47:19;10.50;;;1.88;;
3941;SDS011;1985;48.592;8.850;2022-08-01T01:49:47;11.10;;;2.20;;
3941;SDS011;1985;48.592;8.850;2022-08-01T01:52:15;8.90;;;1.80;;
3941;SDS011;1985;48.592;8.850;2022-08-01T01:54:44;10.82;;;2.35;;
3941;SDS011;1985;48.592;8.850;2022-08-01T01:57:14;8.95;;;1.60;;
3941;SDS011;1985;48.592;8.850;2022-08-01T01:59:42;11.07;;;2.05;;
3941;SDS011;1985;48.592;8.850;2022-08-01T02:02:09;9.60;;;1.90;;
3941;SDS011;1985;48.592;8.850;2022-08-01T02:04:37;8.97;;;1.80;;
3941;SDS011;1985;48.592;8.850;2022-08-01T02:07:07;10.18;;;1.80;;
3941;SDS011;1985;48.592;8.850;2022-08-01T02:09:35;9.50;;;2.00;;
3941;SDS011;1985;48.592;8.850;2022-08-01T02:12:03;9.60;;;2.10;;
3941;SDS011;1985;48.592;8.850;2022-08-01T02:14:31;10.20;;;1.90;;
3941;SDS011;1985;48.592;8.850;2022-08-01T02:17:00;9.85;;;1.88;;
3941;SDS011;1985;48.592;8.850;2022-08-01T02:19:28;9.77;;;2.20;;
3941;SDS011;1985;48.592;8.850;2022-08-01T02:22:00;11.55;;;2.03;;
3941;SDS011;1985;48.592;8.850;2022-08-01T02:24:42;9.75;;;1.90;;
3941;SDS011;1985;48.592;8.850;2022-08-01T02:27:15;9.77;;;2.00;;
3941;SDS011;1985;48.592;8.850;2022-08-01T02:29:53;9.93;;;2.00;;
3941;SDS011;1985;48.592;8.850;2022-08-01T02:32:25;9.32;;;2.03;;
3941;SDS011;1985;48.592;8.850;2022-08-01T02:34:54;9.75;;;1.85;;
3941;SDS011;1985;48.592;8.850;2022-08-01T02:37:22;9.10;;;2.10;;
3941;SDS011;1985;48.592;8.850;2022-08-01T02:39:51;9.70;;;2.30;;
3941;SDS011;1985;48.592;8.850;2022-08-01T02:42:19;8.90;;;1.95;;
3941;SDS011;1985;48.592;8.850;2022-08-01T02:44:47;9.40;;;2.08;;
3941;SDS011;1985;48.592;8.850;2022-08-01T02:47:14;9.43;;;2.03;;
3941;SDS011;1985;48.592;8.850;2022-08-01T02:49:45;8.60;;;1.70;;
3941;SDS011;1985;48.592;8.850;2022-08-01T02:52:14;9.30;;;1.98;;
3941;SDS011;1985;48.592;8.850;2022-08-01T02:54:43;9.50;;;2.03;;
3941;SDS011;1985;48.592;8.850;2022-08-01T02:57:10;9.20;;;1.70;;
3941;SDS011;1985;48.592;8.850;2022-08-01T02:59:38;9.57;;;2.08;;
3941;SDS011;1985;48.592;8.850;2022-08-01T03:02:04;9.60;;;2.00;;
3941;SDS011;1985;48.592;8.850;2022-08-01T03:04:32;9.73;;;1.80;;
3941;SDS011;1985;48.592;8.850;2022-08-01T03:07:00;10.35;;;2.15;;
3941;SDS011;1985;48.592;8.850;2022-08-01T03:09:28;9.38;;;1.90;;
3941;SDS011;1985;48.592;8.850;2022-08-01T03:11:57;10.18;;;2.10;;
3941;SDS011;1985;48.592;8.850;2022-08-01T03:14:25;8.60;;;1.73;;
3941;SDS011;1985;48.592;8.850;2022-08-01T03:16:52;9.60;;;2.20;;
3941;SDS011;1985;48.592;8.850;2022-08-01T03:19:20;11.20;;;1.70;;
3941;SDS011;1985;48.592;8.850;2022-08-01T03:21:49;10.40;;;2.20;;
3941;SDS011;1985;48.592;8.850;2022-08-01T03:24:17;11.70;;;2.20;;
3941;SDS011;1985;48.592;8.850;2022-08-01T03:26:44;9.80;;;2.00;;
3941;SDS011;1985;48.592;8.850;2022-08-01T03:29:16;8.88;;;1.90;;
3941;SDS011;1985;48.592;8.850;2022-08-01T03:31:44;10.48;;;1.95;;
3941;SDS011;1985;48.592;8.850;2022-08-01T03:34:12;9.52;;;1.92;;
3941;SDS011;1985;48.592;8.850;2022-08-01T03:39:49;10.18;;;2.10;;
3941;SDS011;1985;48.592;8.850;2022-08-01T03:42:20;9.77;;;2.10;;
3941;SDS011;1985;48.592;8.850;2022-08-01T03:44:53;9.13;;;1.90;;
3941;SDS011;1985;48.592;8.850;2022-08-01T03:47:22;9.55;;;2.20;;
3941;SDS011;1985;48.592;8.850;2022-08-01T03:49:51;9.80;;;2.20;;
3941;SDS011;1985;48.592;8.850;2022-08-01T03:52:18;9.00;;;1.90;;
3941;SDS011;1985;48.592;8.850;2022-08-01T03:54:46;9.50;;;1.90;;
3941;SDS011;1985;48.592;8.850;2022-08-01T03:57:14;10.20;;;2.10;;
3941;SDS011;1985;48.592;8.850;2022-08-01T03:59:41;9.68;;;2.38;;
3941;SDS011;1985;48.592;8.850;2022-08-01T04:02:08;9.70;;;2.50;;
3941;SDS011;1985;48.592;8.850;2022-08-01T04:04:34;10.73;;;2.40;;
3941;SDS011;1985;48.592;8.850;2022-08-01T04:07:00;9.80;;;2.10;;
3941;SDS011;1985;48.592;8.850;2022-08-01T04:09:31;8.80;;;1.80;;
3941;SDS011;1985;48.592;8.850;2022-08-01T04:12:00;10.00;;;1.98;;
3941;SDS011;1985;48.592;8.850;2022-08-01T04:14:26;9.13;;;1.80;;
3941;SDS011;1985;48.592;8.850;2022-08-01T04:16:53;9.80;;;2.40;;
3941;SDS011;1985;48.592;8.850;2022-08-01T04:19:19;9.80;;;2.17;;
3941;SDS011;1985;48.592;8.850;2022-08-01T04:21:44;9.63;;;2.30;;
3941;SDS011;1985;48.592;8.850;2022-08-01T04:24:12;8.82;;;1.70;;
3941;SDS011;1985;48.592;8.850;2022-08-01T04:26:43;10.00;;;2.20;;
3941;SDS011;1985;48.592;8.850;2022-08-01T04:29:11;9.27;;;2.10;;
3941;SDS011;1985;48.592;8.850;2022-08-01T04:31:42;9.10;;;1.80;;
3941;SDS011;1985;48.592;8.850;2022-08-01T04:34:10;8.98;;;1.90;;
3941;SDS011;1985;48.592;8.850;2022-08-01T04:36:39;10.95;;;1.90;;
3941;SDS011;1985;48.592;8.850;2022-08-01T04:39:07;10.20;;;2.22;;
3941;SDS011;1985;48.592;8.850;2022-08-01T04:41:34;9.60;;;2.00;;
3941;SDS011;1985;48.592;8.850;2022-08-01T04:44:01;9.50;;;2.40;;
3941;SDS011;1985;48.592;8.850;2022-08-01T04:46:28;9.30;;;2.20;;
3941;SDS011;1985;48.592;8.850;2022-08-01T04:48:54;9.60;;;2.13;;
3941;SDS011;1985;48.592;8.850;2022-08-01T04:51:21;9.95;;;2.25;;
3941;SDS011;1985;48.592;8.850;2022-08-01T04:53:47;9.68;;;2.20;;
3941;SDS011;1985;48.592;8.850;2022-08-01T04:56:14;9.52;;;2.20;;
3941;SDS011;1985;48.592;8.850;2022-08-01T04:58:43;10.02;;;2.25;;
3941;SDS011;1985;48.592;8.850;2022-08-01T05:01:09;10.60;;;2.60;;
3941;SDS011;1985;48.592;8.850;2022-08-01T05:03:35;12.23;;;2.50;;
3941;SDS011;1985;48.592;8.850;2022-08-01T05:06:01;9.75;;;2.30;;
3941;SDS011;1985;48.592;8.850;2022-08-01T05:08:27;10.32;;;2.35;;
3941;SDS011;1985;48.592;8.850;2022-08-01T05:10:52;13.30;;;2.37;;
3941;SDS011;1985;48.592;8.850;2022-08-01T05:13:18;10.47;;;2.70;;
3941;SDS011;1985;48.592;8.850;2022-08-01T05:15:44;9.60;;;2.40;;
3941;SDS011;1985;48.592;8.850;2022-08-01T05:18:10;10.07;;;2.63;;
3941;SDS011;1985;48.592;8.850;2022-08-01T05:20:36;10.27;;;2.70;;
3941;SDS011;1985;48.592;8.850;2022-08-01T05:23:02;10.13;;;2.30;;
3941;SDS011;1985;48.592;8.850;2022-08-01T05:25:31;10.82;;;2.30;;
3941;SDS011;1985;48.592;8.850;2022-08-01T05:27:57;10.27;;;2.20;;
3941;SDS011;1985;48.592;8.850;2022-08-01T05:30:22;9.90;;;2.50;;
3941;SDS011;1985;48.592;8.850;2022-08-01T05:32:48;11.43;;;2.40;;
3941;SDS011;1985;48.592;8.850;2022-08-01T05:35:13;9.63;;;2.20;;
3941;SDS011;1985;48.592;8.850;2022-08-01T05:37:39;10.30;;;2.70;;
3941;SDS011;1985;48.592;8.850;2022-08-01T05:40:05;11.63;;;2.60;;
3941;SDS011;1985;48.592;8.850;2022-08-01T05:42:31;10.90;;;2.50;;
3941;SDS011;1985;48.592;8.850;2022-08-01T05:44:57;9.77;;;2.50;;
3941;SDS011;1985;48.592;8.850;2022-08-01T05:47:22;9.35;;;2.00;;
3941;SDS011;1985;48.592;8.850;2022-08-01T05:49:48;9.70;;;2.20;;
3941;SDS011;1985;48.592;8.850;2022-08-01T05:52:14;10.30;;;2.50;;
3941;SDS011;1985;48.592;8.850;2022-08-01T05:54:39;10.02;;;2.60;;
3941;SDS011;1985;48.592;8.850;2022-08-01T05:57:05;14.57;;;2.60;;
3941;SDS011;1985;48.592;8.850;2022-08-01T05:59:31;9.57;;;2.50;;
3941;SDS011;1985;48.592;8.850;2022-08-01T06:01:57;10.38;;;2.85;;
3941;SDS011;1985;48.592;8.850;2022-08-01T06:04:23;10.70;;;2.33;;
3941;SDS011;1985;48.592;8.850;2022-08-01T06:06:48;11.30;;;2.80;;
3941;SDS011;1985;48.592;8.850;2022-08-01T06:09:14;12.10;;;2.80;;
3941;SDS011;1985;48.592;8.850;2022-08-01T06:11:39;10.48;;;2.67;;
3941;SDS011;1985;48.592;8.850;2022-08-01T06:14:05;11.63;;;2.27;;
3941;SDS011;1985;48.592;8.850;2022-08-01T06:16:31;10.30;;;2.43;;
3941;SDS011;1985;48.592;8.850;2022-08-01T06:18:56;12.27;;;2.72;;
3941;SDS011;1985;48.592;8.850;2022-08-01T06:21:22;11.55;;;2.40;;
3941;SDS011;1985;48.592;8.850;2022-08-01T06:23:48;10.00;;;2.40;;
3941;SDS011;1985;48.592;8.850;2022-08-01T06:26:16;9.00;;;2.10;;
3941;SDS011;1985;48.592;8.850;2022-08-01T06:28:43;10.20;;;2.30;;
3941;SDS011;1985;48.592;8.850;2022-08-01T06:31:08;10.23;;;2.63;;
3941;SDS011;1985;48.592;8.850;2022-08-01T06:33:36;9.70;;;2.50;;
3941;SDS011;1985;48.592;8.850;2022-08-01T06:36:02;11.77;;;2.67;;
3941;SDS011;1985;48.592;8.850;2022-08-01T06:38:28;10.70;;;2.50;;
3941;SDS011;1985;48.592;8.850;2022-08-01T06:40:54;13.57;;;3.05;;
3941;SDS011;1985;48.592;8.850;2022-08-01T06:43:19;10.90;;;2.63;;
3941;SDS011;1985;48.592;8.850;2022-08-01T06:45:46;10.07;;;2.40;;
3941;SDS011;1985;48.592;8.850;2022-08-01T06:48:12;10.90;;;2.70;;
3941;SDS011;1985;48.592;8.850;2022-08-01T06:50:37;11.57;;;2.72;;
3941;SDS011;1985;48.592;8.850;2022-08-01T06:53:03;9.30;;;2.20;;
3941;SDS011;1985;48.592;8.850;2022-08-01T06:55:29;9.30;;;2.30;;
3941;SDS011;1985;48.592;8.850;2022-08-01T06:57:55;10.88;;;2.67;;
3941;SDS011;1985;48.592;8.850;2022-08-01T07:00:22;9.70;;;2.17;;
3941;SDS011;1985;48.592;8.850;2022-08-01T07:02:49;11.70;;;2.75;;
3941;SDS011;1985;48.592;8.850;2022-08-01T07:05:16;10.95;;;2.30;;
3941;SDS011;1985;48.592;8.850;2022-08-01T07:07:41;11.63;;;2.60;;
3941;SDS011;1985;48.592;8.850;2022-08-01T07:10:07;9.93;;;2.40;;
3941;SDS011;1985;48.592;8.850;2022-08-01T07:12:33;10.10;;;2.40;;
3941;SDS011;1985;48.592;8.850;2022-08-01T07:15:02;10.50;;;2.50;;
3941;SDS011;1985;48.592;8.850;2022-08-01T07:17:28;9.37;;;1.97;;
3941;SDS011;1985;48.592;8.850;2022-08-01T07:19:54;9.48;;;2.55;;
3941;SDS011;1985;48.592;8.850;2022-08-01T07:22:20;10.57;;;2.20;;
3941;SDS011;1985;48.592;8.850;2022-08-01T07:24:46;8.98;;;1.98;;
3941;SDS011;1985;48.592;8.850;2022-08-01T07:27:11;9.20;;;2.20;;
3941;SDS011;1985;48.592;8.850;2022-08-01T07:29:37;9.20;;;2.07;;
3941;SDS011;1985;48.592;8.850;2022-08-01T07:32:03;9.48;;;2.20;;
3941;SDS011;1985;48.592;8.850;2022-08-01T07:34:29;9.43;;;2.30;;
3941;SDS011;1985;48.592;8.850;2022-08-01T07:36:54;9.57;;;1.90;;
3941;SDS011;1985;48.592;8.850;2022-08-01T07:39:20;8.83;;;2.10;;
3941;SDS011;1985;48.592;8.850;2022-08-01T07:41:46;8.75;;;1.85;;
3941;SDS011;1985;48.592;8.850;2022-08-01T07:44:12;9.63;;;2.00;;
3941;SDS011;1985;48.592;8.850;2022-08-01T07:46:37;10.93;;;2.30;;
3941;SDS011;1985;48.592;8.850;2022-08-01T07:49:03;8.40;;;1.60;;
3941;SDS011;1985;48.592;8.850;2022-08-01T07:51:28;10.70;;;1.80;;
3941;SDS011;1985;48.592;8.850;2022-08-01T07:53:54;10.60;;;2.00;;
3941;SDS011;1985;48.592;8.850;2022-08-01T07:56:20;8.80;;;1.63;;
3941;SDS011;1985;48.592;8.850;2022-08-01T07:58:48;9.05;;;1.92;;
3941;SDS011;1985;48.592;8.850;2022-08-01T08:01:14;8.73;;;1.40;;
3941;SDS011;1985;48.592;8.850;2022-08-01T08:03:40;9.27;;;1.90;;
3941;SDS011;1985;48.592;8.850;2022-08-01T08:06:06;8.60;;;1.50;;
3941;SDS011;1985;48.592;8.850;2022-08-01T08:08:31;9.20;;;1.90;;
3941;SDS011;1985;48.592;8.850;2022-08-01T08:10:59;10.70;;;1.88;;
3941;SDS011;1985;48.592;8.850;2022-08-01T08:13:25;10.38;;;1.85;;
3941;SDS011;1985;48.592;8.850;2022-08-01T08:15:51;9.10;;;2.00;;
3941;SDS011;1985;48.592;8.850;2022-08-01T08:18:16;8.43;;;1.73;;
3941;SDS011;1985;48.592;8.850;2022-08-01T08:20:42;10.43;;;2.17;;
3941;SDS011;1985;48.592;8.850;2022-08-01T08:23:09;8.40;;;1.70;;
3941;SDS011;1985;48.592;8.850;2022-08-01T08:25:53;9.00;;;1.80;;
3941;SDS011;1985;48.592;8.850;2022-08-01T08:28:19;9.30;;;2.20;;
3941;SDS011;1985;48.592;8.850;2022-08-01T08:30:44;9.00;;;1.70;;
3941;SDS011;1985;48.592;8.850;2022-08-01T08:33:10;10.20;;;2.00;;
3941;SDS011;1985;48.592;8.850;2022-08-01T08:35:36;8.90;;;1.60;;
3941;SDS011;1985;48.592;8.850;2022-08-01T08:38:05;11.60;;;2.10;;
3941;SDS011;1985;48.592;8.850;2022-08-01T08:40:30;8.90;;;2.17;;
3941;SDS011;1985;48.592;8.850;2022-08-01T08:42:59;8.40;;;1.77;;
3941;SDS011;1985;48.592;8.850;2022-08-01T08:45:26;9.25;;;1.95;;
3941;SDS011;1985;48.592;8.850;2022-08-01T08:47:52;8.23;;;1.70;;
3941;SDS011;1985;48.592;8.850;2022-08-01T08:50:19;8.85;;;2.20;;
3941;SDS011;1985;48.592;8.850;2022-08-01T08:52:45;9.63;;;2.28;;
3941;SDS011;1985;48.592;8.850;2022-08-01T08:55:13;8.85;;;2.15;;
3941;SDS011;1985;48.592;8.850;2022-08-01T08:57:42;8.50;;;1.75;;
3941;SDS011;1985;48.592;8.850;2022-08-01T09:00:10;8.90;;;2.03;;
3941;SDS011;1985;48.592;8.850;2022-08-01T09:02:39;9.00;;;2.10;;
3941;SDS011;1985;48.592;8.850;2022-08-01T09:05:07;9.00;;;2.00;;
3941;SDS011;1985;48.592;8.850;2022-08-01T09:07:33;10.80;;;2.40;;
3941;SDS011;1985;48.592;8.850;2022-08-01T09:09:59;8.80;;;2.20;;
3941;SDS011;1985;48.592;8.850;2022-08-01T09:12:24;8.98;;;1.90;;
3941;SDS011;1985;48.592;8.850;2022-08-01T09:14:50;8.80;;;1.60;;
3941;SDS011;1985;48.592;8.850;2022-08-01T09:17:18;9.20;;;1.70;;
3941;SDS011;1985;48.592;8.850;2022-08-01T09:22:13;9.70;;;2.03;;
3941;SDS011;1985;48.592;8.850;2022-08-01T09:24:55;8.60;;;1.70;;
3941;SDS011;1985;48.592;8.850;2022-08-01T09:27:31;8.38;;;1.77;;
3941;SDS011;1985;48.592;8.850;2022-08-01T09:30:07;8.70;;;2.00;;
3941;SDS011;1985;48.592;8.850;2022-08-01T09:32:34;12.25;;;2.38;;
3941;SDS011;1985;48.592;8.850;2022-08-01T09:37:49;9.57;;;2.20;;
3941;SDS011;1985;48.592;8.850;2022-08-01T09:40:14;9.70;;;1.97;;
3941;SDS011;1985;48.592;8.850;2022-08-01T09:42:40;8.90;;;1.90;;
3941;SDS011;1985;48.592;8.850;2022-08-01T09:45:06;9.05;;;1.80;;
3941;SDS011;1985;48.592;8.850;2022-08-01T09:47:38;8.50;;;2.00;;
3941;SDS011;1985;48.592;8.850;2022-08-01T09:50:05;8.77;;;1.70;;
3941;SDS011;1985;48.592;8.850;2022-08-01T09:52:32;8.70;;;1.73;;
3941;SDS011;1985;48.592;8.850;2022-08-01T09:54:58;10.55;;;2.10;;
3941;SDS011;1985;48.592;8.850;2022-08-01T09:57:27;9.10;;;1.60;;
3941;SDS011;1985;48.592;8.850;2022-08-01T09:59:55;8.70;;;1.80;;
3941;SDS011;1985;48.592;8.850;2022-08-01T10:04:58;8.70;;;1.70;;
3941;SDS011;1985;48.592;8.850;2022-08-01T10:07:24;8.85;;;2.08;;
3941;SDS011;1985;48.592;8.850;2022-08-01T10:09:50;8.98;;;1.98;;
3941;SDS011;1985;48.592;8.850;2022-08-01T10:12:17;9.05;;;2.10;;
3941;SDS011;1985;48.592;8.850;2022-08-01T10:14:45;8.52;;;1.75;;
3941;SDS011;1985;48.592;8.850;2022-08-01T10:17:14;8.50;;;1.70;;
3941;SDS011;1985;48.592;8.850;2022-08-01T10:19:42;7.82;;;1.40;;
3941;SDS011;1985;48.592;8.850;2022-08-01T10:22:09;10.00;;;1.80;;
3941;SDS011;1985;48.592;8.850;2022-08-01T10:24:38;8.50;;;1.70;;
3941;SDS011;1985;48.592;8.850;2022-08-01T10:27:06;8.20;;;1.63;;
3941;SDS011;1985;48.592;8.850;2022-08-01T10:32:20;9.30;;;1.63;;
3941;SDS011;1985;48.592;8.850;2022-08-01T10:34:46;8.90;;;2.00;;
3941;SDS011;1985;48.592;8.850;2022-08-01T10:37:17;8.23;;;1.55;;
3941;SDS011;1985;48.592;8.850;2022-08-01T10:39:43;9.10;;;1.90;;
3941;SDS011;1985;48.592;8.850;2022-08-01T10:42:09;8.30;;;1.92;;
3941;SDS011;1985;48.592;8.850;2022-08-01T10:44:37;8.23;;;1.48;;
3941;SDS011;1985;48.592;8.850;2022-08-01T10:47:07;8.05;;;1.70;;
3941;SDS011;1985;48.592;8.850;2022-08-01T10:49:42;8.50;;;1.80;;
3941;SDS011;1985;48.592;8.850;2022-08-01T10:52:16;9.00;;;2.00;;
3941;SDS011;1985;48.592;8.850;2022-08-01T10:54:42;8.45;;;1.95;;
3941;SDS011;1985;48.592;8.850;2022-08-01T10:57:08;8.60;;;1.70;;
3941;SDS011;1985;48.592;8.850;2022-08-01T10:59:35;10.30;;;1.80;;
3941;SDS011;1985;48.592;8.850;2022-08-01T11:02:11;8.45;;;1.65;;
3941;SDS011;1985;48.592;8.850;2022-08-01T11:05:01;8.30;;;1.70;;
3941;SDS011;1985;48.592;8.850;2022-08-01T11:07:48;9.38;;;1.80;;
3941;SDS011;1985;48.592;8.850;2022-08-01T11:10:26;8.65;;;1.83;;
3941;SDS011;1985;48.592;8.850;2022-08-01T11:13:00;9.07;;;2.00;;
3941;SDS011;1985;48.592;8.850;2022-08-01T11:15:28;9.20;;;1.73;;
3941;SDS011;1985;48.592;8.850;2022-08-01T11:17:54;8.80;;;2.10;;
3941;SDS011;1985;48.592;8.850;2022-08-01T11:25:25;8.40;;;1.83;;
3941;SDS011;1985;48.592;8.850;2022-08-01T11:31:32;11.20;;;2.20;;
3941;SDS011;1985;48.592;8.850;2022-08-01T11:38:39;8.27;;;1.80;;
3941;SDS011;1985;48.592;8.850;2022-08-01T11:41:17;8.02;;;1.52;;
3941;SDS011;1985;48.592;8.850;2022-08-01T11:46:47;9.40;;;1.85;;
3941;SDS011;1985;48.592;8.850;2022-08-01T11:54:32;8.23;;;1.50;;
3941;SDS011;1985;48.592;8.850;2022-08-01T11:57:06;8.00;;;1.80;;
3941;SDS011;1985;48.592;8.850;2022-08-01T11:59:56;9.10;;;2.07;;
3941;SDS011;1985;48.592;8.850;2022-08-01T12:02:27;8.83;;;1.70;;
3941;SDS011;1985;48.592;8.850;2022-08-01T12:07:29;7.78;;;1.50;;
3941;SDS011;1985;48.592;8.850;2022-08-01T12:10:01;8.07;;;1.90;;
3941;SDS011;1985;48.592;8.850;2022-08-01T12:12:32;9.52;;;1.52;;
3941;SDS011;1985;48.592;8.850;2022-08-01T12:15:04;8.90;;;1.70;;
3941;SDS011;1985;48.592;8.850;2022-08-01T12:17:44;9.50;;;1.55;;
3941;SDS011;1985;48.592;8.850;2022-08-01T12:20:12;8.40;;;1.50;;
3941;SDS011;1985;48.592;8.850;2022-08-01T12:22:40;7.93;;;1.60;;
3941;SDS011;1985;48.592;8.850;2022-08-01T12:27:32;7.43;;;1.23;;
3941;SDS011;1985;48.592;8.850;2022-08-01T12:29:58;7.80;;;1.60;;
3941;SDS011;1985;48.592;8.850;2022-08-01T12:32:25;7.82;;;1.35;;
3941;SDS011;1985;48.592;8.850;2022-08-01T12:34:52;9.30;;;1.60;;
3941;SDS011;1985;48.592;8.850;2022-08-01T12:37:18;8.50;;;1.60;;
3941;SDS011;1985;48.592;8.850;2022-08-01T12:39:44;10.80;;;1.60;;
3941;SDS011;1985;48.592;8.850;2022-08-01T12:42:12;9.03;;;1.73;;
3941;SDS011;1985;48.592;8.850;2022-08-01T12:44:39;8.00;;;1.67;;
3941;SDS011;1985;48.592;8.850;2022-08-01T12:47:05;8.00;;;1.70;;
3941;SDS011;1985;48.592;8.850;2022-08-01T12:49:35;7.80;;;1.40;;
3941;SDS011;1985;48.592;8.850;2022-08-01T12:52:02;8.10;;;1.60;;
3941;SDS011;1985;48.592;8.850;2022-08-01T12:54:28;8.43;;;1.70;;
3941;SDS011;1985;48.592;8.850;2022-08-01T12:56:54;7.60;;;1.77;;
3941;SDS011;1985;48.592;8.850;2022-08-01T12:59:21;7.40;;;1.33;;
3941;SDS011;1985;48.592;8.850;2022-08-01T13:01:50;8.73;;;1.70;;
3941;SDS011;1985;48.592;8.850;2022-08-01T13:04:17;8.80;;;1.70;;
3941;SDS011;1985;48.592;8.850;2022-08-01T13:06:43;7.60;;;1.50;;
3941;SDS011;1985;48.592;8.850;2022-08-01T13:09:09;8.30;;;1.50;;
3941;SDS011;1985;48.592;8.850;2022-08-01T13:11:39;8.15;;;1.60;;
3941;SDS011;1985;48.592;8.850;2022-08-01T13:14:05;7.30;;;1.30;;
3941;SDS011;1985;48.592;8.850;2022-08-01T13:16:31;8.00;;;1.30;;
3941;SDS011;1985;48.592;8.850;2022-08-01T13:19:09;7.53;;;1.20;;
3941;SDS011;1985;48.592;8.850;2022-08-01T13:21:35;9.00;;;1.70;;
3941;SDS011;1985;48.592;8.850;2022-08-01T13:26:41;8.00;;;1.75;;
3941;SDS011;1985;48.592;8.850;2022-08-01T13:29:35;7.45;;;1.48;;
3941;SDS011;1985;48.592;8.850;2022-08-01T13:32:16;7.45;;;1.42;;
3941;SDS011;1985;48.592;8.850;2022-08-01T13:34:43;7.78;;;1.60;;
3941;SDS011;1985;48.592;8.850;2022-08-01T13:37:09;7.65;;;1.40;;
3941;SDS011;1985;48.592;8.850;2022-08-01T13:39:34;7.90;;;1.60;;
3941;SDS011;1985;48.592;8.850;2022-08-01T13:42:16;7.90;;;1.50;;
3941;SDS011;1985;48.592;8.850;2022-08-01T13:44:42;8.15;;;1.58;;
3941;SDS011;1985;48.592;8.850;2022-08-01T13:47:10;7.63;;;1.50;;
3941;SDS011;1985;48.592;8.850;2022-08-01T13:49:36;7.87;;;1.43;;
3941;SDS011;1985;48.592;8.850;2022-08-01T13:52:02;8.23;;;2.00;;
3941;SDS011;1985;48.592;8.850;2022-08-01T13:54:31;7.80;;;1.52;;
3941;SDS011;1985;48.592;8.850;2022-08-01T13:56:56;8.18;;;1.67;;
3941;SDS011;1985;48.592;8.850;2022-08-01T13:59:22;7.90;;;1.50;;
3941;SDS011;1985;48.592;8.850;2022-08-01T14:01:48;9.10;;;1.90;;
3941;SDS011;1985;48.592;8.850;2022-08-01T14:04:14;7.57;;;1.50;;
3941;SDS011;1985;48.592;8.850;2022-08-01T14:06:39;8.35;;;1.90;;
3941;SDS011;1985;48.592;8.850;2022-08-01T14:09:05;9.48;;;2.05;;
3941;SDS011;1985;48.592;8.850;2022-08-01T14:11:31;8.35;;;1.63;;
3941;SDS011;1985;48.592;8.850;2022-08-01T14:13:57;8.50;;;1.80;;
3941;SDS011;1985;48.592;8.850;2022-08-01T14:16:23;9.15;;;1.90;;
3941;SDS011;1985;48.592;8.850;2022-08-01T14:18:49;8.60;;;1.90;;
3941;SDS011;1985;48.592;8.850;2022-08-01T14:21:15;8.60;;;2.00;;
3941;SDS011;1985;48.592;8.850;2022-08-01T14:23:41;9.03;;;2.13;;
3941;SDS011;1985;48.592;8.850;2022-08-01T14:26:08;14.30;;;1.98;;
3941;SDS011;1985;48.592;8.850;2022-08-01T14:28:34;9.00;;;1.80;;
3941;SDS011;1985;48.592;8.850;2022-08-01T14:31:00;9.05;;;1.88;;
3941;SDS011;1985;48.592;8.850;2022-08-01T14:33:26;8.40;;;1.90;;
3941;SDS011;1985;48.592;8.850;2022-08-01T14:35:52;8.27;;;1.90;;
3941;SDS011;1985;48.592;8.850;2022-08-01T14:38:18;9.50;;;1.97;;
3941;SDS011;1985;48.592;8.850;2022-08-01T14:40:44;8.60;;;1.80;;
3941;SDS011;1985;48.592;8.850;2022-08-01T14:43:12;8.23;;;1.90;;
3941;SDS011;1985;48.592;8.850;2022-08-01T14:45:38;8.82;;;1.73;;
3941;SDS011;1985;48.592;8.850;2022-08-01T14:48:04;8.82;;;2.03;;
3941;SDS011;1985;48.592;8.850;2022-08-01T14:50:29;8.40;;;1.80;;
3941;SDS011;1985;48.592;8.850;2022-08-01T14:52:55;8.70;;;1.92;;
3941;SDS011;1985;48.592;8.850;2022-08-01T14:55:21;10.00;;;1.70;;
3941;SDS011;1985;48.592;8.850;2022-08-01T14:57:50;8.90;;;2.00;;
3941;SDS011;1985;48.592;8.850;2022-08-01T15:00:15;8.57;;;1.92;;
3941;SDS011;1985;48.592;8.850;2022-08-01T15:02:41;8.27;;;1.70;;
3941;SDS011;1985;48.592;8.850;2022-08-01T15:05:07;9.98;;;1.83;;
3941;SDS011;1985;48.592;8.850;2022-08-01T15:07:33;9.32;;;2.13;;
3941;SDS011;1985;48.592;8.850;2022-08-01T15:10:00;8.20;;;1.80;;
3941;SDS011;1985;48.592;8.850;2022-08-01T15:12:25;9.40;;;1.60;;
3941;SDS011;1985;48.592;8.850;2022-08-01T15:14:51;8.40;;;1.60;;
3941;SDS011;1985;48.592;8.850;2022-08-01T15:17:18;8.77;;;1.70;;
3941;SDS011;1985;48.592;8.850;2022-08-01T15:19:51;8.73;;;1.80;;
3941;SDS011;1985;48.592;8.850;2022-08-01T15:22:21;8.40;;;1.88;;
3941;SDS011;1985;48.592;8.850;2022-08-01T15:24:48;9.40;;;2.00;;
3941;SDS011;1985;48.592;8.850;2022-08-01T15:27:15;8.40;;;1.80;;
3941;SDS011;1985;48.592;8.850;2022-08-01T15:29:41;8.50;;;1.80;;
3941;SDS011;1985;48.592;8.850;2022-08-01T15:32:07;9.98;;;1.70;;
3941;SDS011;1985;48.592;8.850;2022-08-01T15:34:34;8.18;;;1.70;;
3941;SDS011;1985;48.592;8.850;2022-08-01T15:37:00;8.50;;;1.85;;
3941;SDS011;1985;48.592;8.850;2022-08-01T15:39:26;8.37;;;1.70;;
3941;SDS011;1985;48.592;8.850;2022-08-01T15:41:52;8.40;;;1.80;;
3941;SDS011;1985;48.592;8.850;2022-08-01T15:44:18;8.35;;;1.75;;
3941;SDS011;1985;48.592;8.850;2022-08-01T15:46:48;8.57;;;1.80;;
3941;SDS011;1985;48.592;8.850;2022-08-01T15:49:14;8.40;;;1.73;;
3941;SDS011;1985;48.592;8.850;2022-08-01T15:51:40;8.20;;;1.65;;
3941;SDS011;1985;48.592;8.850;2022-08-01T15:54:06;8.10;;;1.70;;
3941;SDS011;1985;48.592;8.850;2022-08-01T15:56:32;8.00;;;1.52;;
3941;SDS011;1985;48.592;8.850;2022-08-01T15:58:58;8.95;;;1.80;;
3941;SDS011;1985;48.592;8.850;2022-08-01T16:01:24;8.15;;;1.60;;
3941;SDS011;1985;48.592;8.850;2022-08-01T16:03:51;8.70;;;1.70;;
3941;SDS011;1985;48.592;8.850;2022-08-01T16:06:17;8.73;;;2.03;;